Frezya S — H9FC — position and weather

sailwx.info

Track history (hours):
 
Tides and Currents Weather Stations Pressure Air Temp Water Temp Dewpoint Dewpoint Depression Visibility Wind Speed Wind Dir Waves Ship Positions

Frezya S

Last reported at 2018-Feb-19 07:52 UTC. Time now 2018-Feb-20 07:56 UTC.
Position N 51°16' W 004°10'.

Length 120 m; draft 6.5 m.

Type: Cargo ship. MMSI: 374040000.

Date/timePositionNaut miles runAvg speedWind from/ knotsBaromVisibWave heightAir tempDewpointWater temp
2018-Feb-19 07:52N 51°16' W 004°10'1210.8
2018-Feb-19 06:48N 51°10' W 004°26'311.7
2018-Feb-19 06:30N 51°07' W 004°30'612.2
2018-Feb-19 06:01N 51°03' W 004°37'611.7
2018-Feb-19 05:31N 50°59' W 004°44'510.9
2018-Feb-19 05:01N 50°56' W 004°50'510.6
2018-Feb-19 04:31N 50°52' W 004°56'510.3
2018-Feb-19 04:01N 50°49' W 005°02'510.0
2018-Feb-19 03:31N 50°45' W 005°08'5 9.7
2018-Feb-19 03:00N 50°42' W 005°14'5 9.4
2018-Feb-19 02:31N 50°39' W 005°20'5 9.2
2018-Feb-19 02:01N 50°36' W 005°25'4 9.0
2018-Feb-19 01:31N 50°33' W 005°30'4 8.8
2018-Feb-19 01:01N 50°30' W 005°36'4 8.5
2018-Feb-19 00:31N 50°27' W 005°41'4 8.3
2018-Feb-19 00:00N 50°24' W 005°45'283 6.7
2018-Feb-17 05:42N 46°19' W 002°12'22 7.8
2018-Feb-17 02:52N 46°02' W 001°52'32 9.1
2018-Feb-16 23:22N 45°37' W 001°23'3 7.4
2018-Feb-16 23:00N 45°37' W 001°20'611.3
2018-Feb-16 22:30N 45°39' W 001°12'611.3
2018-Feb-16 22:00N 45°37' W 001°05'612.2
2018-Feb-16 21:30N 45°32' W 000°60'713.1
2018-Feb-16 21:00N 45°27' W 000°54'611.9
2018-Feb-16 20:29N 45°22' W 000°48'  
2018-Feb-13 02:01N 45°18' W 000°46'112.5
2018-Feb-13 01:59N 45°18' W 000°46'612.3
2018-Feb-13 01:30N 45°24' W 000°50'612.5
2018-Feb-13 01:00N 45°28' W 000°56'612.0
2018-Feb-13 00:30N 45°33' W 001°02'1 2.8
2018-Feb-12 23:59N 45°34' W 001°03'0 0.1
2018-Feb-12 23:29N 45°34' W 001°03'0 0.1
2018-Feb-12 22:56N 45°34' W 001°03'0 0.0
2018-Feb-12 22:23N 45°34' W 001°03'0 0.3
2018-Feb-12 21:53N 45°34' W 001°03'0 0.0
2018-Feb-12 21:29N 45°34' W 001°03'0 0.0
2018-Feb-12 20:59N 45°34' W 001°03'0 0.0
2018-Feb-12 20:29N 45°34' W 001°03'0 0.0
2018-Feb-12 19:47N 45°34' W 001°03'0 0.0
2018-Feb-12 19:20N 45°34' W 001°03'0 0.0
2018-Feb-12 18:59N 45°34' W 001°03'0 0.0
2018-Feb-12 18:29N 45°34' W 001°03'0 0.0
2018-Feb-12 17:56N 45°34' W 001°03'0 0.0
2018-Feb-12 17:29N 45°34' W 001°03'0 0.0
2018-Feb-12 16:50N 45°34' W 001°03'0 0.0
2018-Feb-12 16:29N 45°34' W 001°03'0 0.1
2018-Feb-12 15:59N 45°34' W 001°03'0 0.1
2018-Feb-12 15:17N 45°34' W 001°03'0 0.3
2018-Feb-12 14:56N 45°34' W 001°03'0 0.1
2018-Feb-12 14:26N 45°34' W 001°03'0 0.1
2018-Feb-12 13:53N 45°34' W 001°03'0 0.2
2018-Feb-12 13:26N 45°34' W 001°03'0 0.2
2018-Feb-12 12:59N 45°34' W 001°03'0 0.2
2018-Feb-12 12:29N 45°34' W 001°03'0 0.0
2018-Feb-12 11:44N 45°34' W 001°03'0 0.0
2018-Feb-12 11:23N 45°34' W 001°03'0 0.1
2018-Feb-12 10:59N 45°34' W 001°03'0 0.0
2018-Feb-12 10:29N 45°34' W 001°03'0 0.0
2018-Feb-12 09:59N 45°34' W 001°03'0 0.1
2018-Feb-12 09:26N 45°34' W 001°03'0 0.2
2018-Feb-12 08:56N 45°34' W 001°03'0 0.0
2018-Feb-12 08:05N 45°34' W 001°03'0 0.0
2018-Feb-12 07:44N 45°34' W 001°03'0 0.0
2018-Feb-12 07:29N 45°34' W 001°03'0 0.0
2018-Feb-12 06:59N 45°34' W 001°03'0 0.0
2018-Feb-12 06:29N 45°34' W 001°03'0 0.0
2018-Feb-12 05:59N 45°34' W 001°03'0 0.0
2018-Feb-12 05:26N 45°34' W 001°03'0 0.0
2018-Feb-12 04:56N 45°34' W 001°03'0 0.0
2018-Feb-12 04:26N 45°34' W 001°03'0 0.0
2018-Feb-12 03:59N 45°34' W 001°03'0 0.1
2018-Feb-12 03:29N 45°34' W 001°03'0 0.2
2018-Feb-12 02:53N 45°34' W 001°03'0 0.1
2018-Feb-12 02:29N 45°34' W 001°03'0 0.0
2018-Feb-12 01:53N 45°34' W 001°03'0 0.0
2018-Feb-12 01:29N 45°34' W 001°03'0 0.2
2018-Feb-12 00:53N 45°34' W 001°03'0 0.2
2018-Feb-12 00:29N 45°34' W 001°03'0 0.0
2018-Feb-11 23:32N 45°34' W 001°03'0 0.0
2018-Feb-11 23:29N 45°34' W 001°03'0 0.0
2018-Feb-11 22:53N 45°34' W 001°03'0 0.1
2018-Feb-11 22:29N 45°34' W 001°03'0 0.0
2018-Feb-11 21:59N 45°34' W 001°03'0 0.0
2018-Feb-11 21:17N 45°34' W 001°03'0 0.1
2018-Feb-11 20:59N 45°34' W 001°03'0 0.3
2018-Feb-11 20:29N 45°34' W 001°03'0 0.0
2018-Feb-11 19:59N 45°34' W 001°03'0 0.0
2018-Feb-11 19:29N 45°34' W 001°03'0 0.0
2018-Feb-11 18:56N 45°34' W 001°03'0 0.0
2018-Feb-11 18:26N 45°34' W 001°03'0 0.0
2018-Feb-11 17:59N 45°34' W 001°03'0 0.0
2018-Feb-11 17:26N 45°34' W 001°03'0 0.0
2018-Feb-11 16:59N 45°34' W 001°03'0 0.0
2018-Feb-11 16:29N 45°34' W 001°03'0 0.1
2018-Feb-11 15:59N 45°34' W 001°03'0 0.1
2018-Feb-11 15:29N 45°34' W 001°03'0 0.1
2018-Feb-11 14:56N 45°34' W 001°03'0 0.1
2018-Feb-11 14:29N 45°34' W 001°03'0 0.1
2018-Feb-11 13:56N 45°34' W 001°03'0 0.1
2018-Feb-11 13:26N 45°34' W 001°03'0 0.0
2018-Feb-11 12:53N 45°34' W 001°03'0 0.0
2018-Feb-11 12:17N 45°34' W 001°03'0 0.0
2018-Feb-11 11:56N 45°34' W 001°03'0 0.0
2018-Feb-11 11:20N 45°34' W 001°03'0 0.0
2018-Feb-11 10:47N 45°34' W 001°03'0 0.0
2018-Feb-11 10:23N 45°34' W 001°03'0 0.0
2018-Feb-11 09:56N 45°34' W 001°03'0 0.0
2018-Feb-11 09:29N 45°34' W 001°03'0 0.0
2018-Feb-11 08:59N 45°34' W 001°03'0 0.1
2018-Feb-11 08:23N 45°34' W 001°03'0 0.3
2018-Feb-11 07:56N 45°34' W 001°03'0 0.1
2018-Feb-11 07:23N 45°34' W 001°03'0 0.3
2018-Feb-11 06:59N 45°34' W 001°03'0 0.1
2018-Feb-11 06:29N 45°34' W 001°03'0 0.0
2018-Feb-11 05:59N 45°34' W 001°03'0 0.0
2018-Feb-11 05:29N 45°34' W 001°03'0 0.0
2018-Feb-11 04:44N 45°34' W 001°03'0 0.0
2018-Feb-11 04:29N 45°34' W 001°03'0 0.0
2018-Feb-11 03:59N 45°34' W 001°03'0 0.0
2018-Feb-11 03:20N 45°34' W 001°03'0 0.0
2018-Feb-11 02:56N 45°34' W 001°03'0 0.0
2018-Feb-11 02:26N 45°34' W 001°03'0 0.0
2018-Feb-11 01:59N 45°34' W 001°03'0 0.0
2018-Feb-11 01:29N 45°34' W 001°03'0 0.1
2018-Feb-11 00:59N 45°34' W 001°03'0 0.2
2018-Feb-11 00:29N 45°34' W 001°03'0 0.0
2018-Feb-10 23:59N 45°34' W 001°03'0 0.0
2018-Feb-10 23:17N 45°34' W 001°03'0 0.0
2018-Feb-10 22:50N 45°34' W 001°03'0 0.0
2018-Feb-10 22:29N 45°34' W 001°03'0 0.0
2018-Feb-10 21:59N 45°34' W 001°03'0 0.0
2018-Feb-10 21:26N 45°34' W 001°03'0 0.3
2018-Feb-10 21:01N 45°34' W 001°03'2 4.8
2018-Feb-10 20:31N 45°36' W 001°04'4 8.6
2018-Feb-10 20:00N 45°39' W 001°09'4 8.3
2018-Feb-10 19:29N 45°39' W 001°15'4 8.0
2018-Feb-10 19:00N 45°37' W 001°20'4 8.7
2018-Feb-10 18:29N 45°36' W 001°26'1 0.5
2018-Feb-10 17:02N 45°36' W 001°27'0 0.0
2018-Feb-10 16:50N 45°36' W 001°27'0 0.0
2018-Feb-10 16:29N 45°36' W 001°27'0 0.0
2018-Feb-10 13:44N 45°36' W 001°27'0 0.1
2018-Feb-10 12:23N 45°36' W 001°27'  
Track history (hours):
 
Tides and Currents Weather Stations Pressure Air Temp Water Temp Dewpoint Dewpoint Depression Visibility Wind Speed Wind Dir Waves Ship Positions

Frezya S

Last reported at 2018-Feb-19 07:52 UTC. Time now 2018-Feb-20 07:56 UTC.
Position N 51°16' W 004°10'.

Length 120 m; draft 6.5 m.

Type: Cargo ship. MMSI: 374040000.

Date/timePositionNaut miles runAvg speedWind from/ knotsBaromVisibWave heightAir tempDewpointWater temp
2018-Feb-19 07:52N 51°16' W 004°10'1210.8
2018-Feb-19 06:48N 51°10' W 004°26'311.7
2018-Feb-19 06:30N 51°07' W 004°30'612.2
2018-Feb-19 06:01N 51°03' W 004°37'611.7
2018-Feb-19 05:31N 50°59' W 004°44'510.9
2018-Feb-19 05:01N 50°56' W 004°50'510.6
2018-Feb-19 04:31N 50°52' W 004°56'510.3
2018-Feb-19 04:01N 50°49' W 005°02'510.0
2018-Feb-19 03:31N 50°45' W 005°08'5 9.7
2018-Feb-19 03:00N 50°42' W 005°14'5 9.4
2018-Feb-19 02:31N 50°39' W 005°20'5 9.2
2018-Feb-19 02:01N 50°36' W 005°25'4 9.0
2018-Feb-19 01:31N 50°33' W 005°30'4 8.8
2018-Feb-19 01:01N 50°30' W 005°36'4 8.5
2018-Feb-19 00:31N 50°27' W 005°41'4 8.3
2018-Feb-19 00:00N 50°24' W 005°45'283 6.7
2018-Feb-17 05:42N 46°19' W 002°12'22 7.8
2018-Feb-17 02:52N 46°02' W 001°52'32 9.1
2018-Feb-16 23:22N 45°37' W 001°23'3 7.4
2018-Feb-16 23:00N 45°37' W 001°20'611.3
2018-Feb-16 22:30N 45°39' W 001°12'611.3
2018-Feb-16 22:00N 45°37' W 001°05'612.2
2018-Feb-16 21:30N 45°32' W 000°60'713.1
2018-Feb-16 21:00N 45°27' W 000°54'611.9
2018-Feb-16 20:29N 45°22' W 000°48'  
2018-Feb-13 02:01N 45°18' W 000°46'112.5
2018-Feb-13 01:59N 45°18' W 000°46'612.3
2018-Feb-13 01:30N 45°24' W 000°50'612.5
2018-Feb-13 01:00N 45°28' W 000°56'612.0
2018-Feb-13 00:30N 45°33' W 001°02'1 2.8
2018-Feb-12 23:59N 45°34' W 001°03'0 0.1
2018-Feb-12 23:29N 45°34' W 001°03'0 0.1
2018-Feb-12 22:56N 45°34' W 001°03'0 0.0
2018-Feb-12 22:23N 45°34' W 001°03'0 0.3
2018-Feb-12 21:53N 45°34' W 001°03'0 0.0
2018-Feb-12 21:29N 45°34' W 001°03'0 0.0
2018-Feb-12 20:59N 45°34' W 001°03'0 0.0
2018-Feb-12 20:29N 45°34' W 001°03'0 0.0
2018-Feb-12 19:47N 45°34' W 001°03'0 0.0
2018-Feb-12 19:20N 45°34' W 001°03'0 0.0
2018-Feb-12 18:59N 45°34' W 001°03'0 0.0
2018-Feb-12 18:29N 45°34' W 001°03'0 0.0
2018-Feb-12 17:56N 45°34' W 001°03'0 0.0
2018-Feb-12 17:29N 45°34' W 001°03'0 0.0
2018-Feb-12 16:50N 45°34' W 001°03'0 0.0
2018-Feb-12 16:29N 45°34' W 001°03'0 0.1
2018-Feb-12 15:59N 45°34' W 001°03'0 0.1
2018-Feb-12 15:17N 45°34' W 001°03'0 0.3
2018-Feb-12 14:56N 45°34' W 001°03'0 0.1
2018-Feb-12 14:26N 45°34' W 001°03'0 0.1
2018-Feb-12 13:53N 45°34' W 001°03'0 0.2
2018-Feb-12 13:26N 45°34' W 001°03'0 0.2
2018-Feb-12 12:59N 45°34' W 001°03'0 0.2
2018-Feb-12 12:29N 45°34' W 001°03'0 0.0
2018-Feb-12 11:44N 45°34' W 001°03'0 0.0
2018-Feb-12 11:23N 45°34' W 001°03'0 0.1
2018-Feb-12 10:59N 45°34' W 001°03'0 0.0
2018-Feb-12 10:29N 45°34' W 001°03'0 0.0
2018-Feb-12 09:59N 45°34' W 001°03'0 0.1
2018-Feb-12 09:26N 45°34' W 001°03'0 0.2
2018-Feb-12 08:56N 45°34' W 001°03'0 0.0
2018-Feb-12 08:05N 45°34' W 001°03'0 0.0
2018-Feb-12 07:44N 45°34' W 001°03'0 0.0
2018-Feb-12 07:29N 45°34' W 001°03'0 0.0
2018-Feb-12 06:59N 45°34' W 001°03'0 0.0
2018-Feb-12 06:29N 45°34' W 001°03'0 0.0
2018-Feb-12 05:59N 45°34' W 001°03'0 0.0
2018-Feb-12 05:26N 45°34' W 001°03'0 0.0
2018-Feb-12 04:56N 45°34' W 001°03'0 0.0
2018-Feb-12 04:26N 45°34' W 001°03'0 0.0
2018-Feb-12 03:59N 45°34' W 001°03'0 0.1
2018-Feb-12 03:29N 45°34' W 001°03'0 0.2
2018-Feb-12 02:53N 45°34' W 001°03'0 0.1
2018-Feb-12 02:29N 45°34' W 001°03'0 0.0
2018-Feb-12 01:53N 45°34' W 001°03'0 0.0
2018-Feb-12 01:29N 45°34' W 001°03'0 0.2
2018-Feb-12 00:53N 45°34' W 001°03'0 0.2
2018-Feb-12 00:29N 45°34' W 001°03'0 0.0
2018-Feb-11 23:32N 45°34' W 001°03'0 0.0
2018-Feb-11 23:29N 45°34' W 001°03'0 0.0
2018-Feb-11 22:53N 45°34' W 001°03'0 0.1
2018-Feb-11 22:29N 45°34' W 001°03'0 0.0
2018-Feb-11 21:59N 45°34' W 001°03'0 0.0
2018-Feb-11 21:17N 45°34' W 001°03'0 0.1
2018-Feb-11 20:59N 45°34' W 001°03'0 0.3
2018-Feb-11 20:29N 45°34' W 001°03'0 0.0
2018-Feb-11 19:59N 45°34' W 001°03'0 0.0
2018-Feb-11 19:29N 45°34' W 001°03'0 0.0
2018-Feb-11 18:56N 45°34' W 001°03'0 0.0
2018-Feb-11 18:26N 45°34' W 001°03'0 0.0
2018-Feb-11 17:59N 45°34' W 001°03'0 0.0
2018-Feb-11 17:26N 45°34' W 001°03'0 0.0
2018-Feb-11 16:59N 45°34' W 001°03'0 0.0
2018-Feb-11 16:29N 45°34' W 001°03'0 0.1
2018-Feb-11 15:59N 45°34' W 001°03'0 0.1
2018-Feb-11 15:29N 45°34' W 001°03'0 0.1
2018-Feb-11 14:56N 45°34' W 001°03'0 0.1
2018-Feb-11 14:29N 45°34' W 001°03'0 0.1
2018-Feb-11 13:56N 45°34' W 001°03'0 0.1
2018-Feb-11 13:26N 45°34' W 001°03'0 0.0
2018-Feb-11 12:53N 45°34' W 001°03'0 0.0
2018-Feb-11 12:17N 45°34' W 001°03'0 0.0
2018-Feb-11 11:56N 45°34' W 001°03'0 0.0
2018-Feb-11 11:20N 45°34' W 001°03'0 0.0
2018-Feb-11 10:47N 45°34' W 001°03'0 0.0
2018-Feb-11 10:23N 45°34' W 001°03'0 0.0
2018-Feb-11 09:56N 45°34' W 001°03'0 0.0
2018-Feb-11 09:29N 45°34' W 001°03'0 0.0
2018-Feb-11 08:59N 45°34' W 001°03'0 0.1
2018-Feb-11 08:23N 45°34' W 001°03'0 0.3
2018-Feb-11 07:56N 45°34' W 001°03'0 0.1
2018-Feb-11 07:23N 45°34' W 001°03'0 0.3
2018-Feb-11 06:59N 45°34' W 001°03'0 0.1
2018-Feb-11 06:29N 45°34' W 001°03'0 0.0
2018-Feb-11 05:59N 45°34' W 001°03'0 0.0
2018-Feb-11 05:29N 45°34' W 001°03'0 0.0
2018-Feb-11 04:44N 45°34' W 001°03'0 0.0
2018-Feb-11 04:29N 45°34' W 001°03'0 0.0
2018-Feb-11 03:59N 45°34' W 001°03'0 0.0
2018-Feb-11 03:20N 45°34' W 001°03'0 0.0
2018-Feb-11 02:56N 45°34' W 001°03'0 0.0
2018-Feb-11 02:26N 45°34' W 001°03'0 0.0
2018-Feb-11 01:59N 45°34' W 001°03'0 0.0
2018-Feb-11 01:29N 45°34' W 001°03'0 0.1
2018-Feb-11 00:59N 45°34' W 001°03'0 0.2
2018-Feb-11 00:29N 45°34' W 001°03'0 0.0
2018-Feb-10 23:59N 45°34' W 001°03'0 0.0
2018-Feb-10 23:17N 45°34' W 001°03'0 0.0
2018-Feb-10 22:50N 45°34' W 001°03'0 0.0
2018-Feb-10 22:29N 45°34' W 001°03'0 0.0
2018-Feb-10 21:59N 45°34' W 001°03'0 0.0
2018-Feb-10 21:26N 45°34' W 001°03'0 0.3
2018-Feb-10 21:01N 45°34' W 001°03'2 4.8
2018-Feb-10 20:31N 45°36' W 001°04'4 8.6
2018-Feb-10 20:00N 45°39' W 001°09'4 8.3
2018-Feb-10 19:29N 45°39' W 001°15'4 8.0
2018-Feb-10 19:00N 45°37' W 001°20'4 8.7
2018-Feb-10 18:29N 45°36' W 001°26'1 0.5
2018-Feb-10 17:02N 45°36' W 001°27'0 0.0
2018-Feb-10 16:50N 45°36' W 001°27'0 0.0
2018-Feb-10 16:29N 45°36' W 001°27'0 0.0
2018-Feb-10 13:44N 45°36' W 001°27'0 0.1
2018-Feb-10 12:23N 45°36' W 001°27'  

Dump ship's entire track history